sensor_id;sensor_type;location;lat;lon;timestamp;temperature;humidity
41469;DHT22;27206;47.032;15.484;2022-12-29T00:01:13;-1.00;1.00
41469;DHT22;27206;47.032;15.484;2022-12-29T00:03:39;-1.20;1.00
41469;DHT22;27206;47.032;15.484;2022-12-29T00:06:04;-1.10;1.00
41469;DHT22;27206;47.032;15.484;2022-12-29T00:08:30;-1.10;1.00
41469;DHT22;27206;47.032;15.484;2022-12-29T00:11:38;-1.10;1.00
41469;DHT22;27206;47.032;15.484;2022-12-29T00:13:56;-1.10;1.00
41469;DHT22;27206;47.032;15.484;2022-12-29T00:16:41;-1.30;1.00
41469;DHT22;27206;47.032;15.484;2022-12-29T00:19:07;-1.30;1.00
41469;DHT22;27206;47.032;15.484;2022-12-29T00:21:52;-1.20;1.00
41469;DHT22;27206;47.032;15.484;2022-12-29T00:24:36;-1.20;1.00
41469;DHT22;27206;47.032;15.484;2022-12-29T00:27:21;-1.30;1.00
41469;DHT22;27206;47.032;15.484;2022-12-29T00:30:09;-1.20;1.00
41469;DHT22;27206;47.032;15.484;2022-12-29T00:32:53;-1.20;1.00
41469;DHT22;27206;47.032;15.484;2022-12-29T00:35:43;-1.30;1.00
41469;DHT22;27206;47.032;15.484;2022-12-29T00:38:10;-1.50;1.00
41469;DHT22;27206;47.032;15.484;2022-12-29T00:40:54;-1.50;1.00
41469;DHT22;27206;47.032;15.484;2022-12-29T00:43:38;-1.40;1.00
41469;DHT22;27206;47.032;15.484;2022-12-29T00:46:22;-1.40;1.00
41469;DHT22;27206;47.032;15.484;2022-12-29T00:48:48;-1.60;1.00
41469;DHT22;27206;47.032;15.484;2022-12-29T00:51:32;-1.60;1.00
41469;DHT22;27206;47.032;15.484;2022-12-29T00:53:57;-1.50;1.00
41469;DHT22;27206;47.032;15.484;2022-12-29T00:56:23;-1.50;1.00
41469;DHT22;27206;47.032;15.484;2022-12-29T00:58:48;-1.50;1.00
41469;DHT22;27206;47.032;15.484;2022-12-29T01:01:14;-1.40;1.00
41469;DHT22;27206;47.032;15.484;2022-12-29T01:03:39;-1.40;1.00
41469;DHT22;27206;47.032;15.484;2022-12-29T01:06:09;-1.40;1.00
41469;DHT22;27206;47.032;15.484;2022-12-29T01:08:35;-1.40;1.00
41469;DHT22;27206;47.032;15.484;2022-12-29T01:11:04;-1.40;1.00
41469;DHT22;27206;47.032;15.484;2022-12-29T01:13:30;-1.40;1.00
41469;DHT22;27206;47.032;15.484;2022-12-29T01:15:55;-1.70;1.00
41469;DHT22;27206;47.032;15.484;2022-12-29T01:18:21;-1.80;1.00
41469;DHT22;27206;47.032;15.484;2022-12-29T01:20:47;-1.70;1.00
41469;DHT22;27206;47.032;15.484;2022-12-29T01:23:13;-1.60;1.00
41469;DHT22;27206;47.032;15.484;2022-12-29T01:25:39;-1.60;1.00
41469;DHT22;27206;47.032;15.484;2022-12-29T01:28:04;-1.70;1.00
41469;DHT22;27206;47.032;15.484;2022-12-29T01:30:30;-1.70;1.00
41469;DHT22;27206;47.032;15.484;2022-12-29T01:32:55;-1.80;1.00
41469;DHT22;27206;47.032;15.484;2022-12-29T01:35:21;-1.80;1.00
41469;DHT22;27206;47.032;15.484;2022-12-29T01:37:46;-1.80;1.00
41469;DHT22;27206;47.032;15.484;2022-12-29T01:40:12;-1.90;1.00
41469;DHT22;27206;47.032;15.484;2022-12-29T01:42:38;-1.80;1.00
41469;DHT22;27206;47.032;15.484;2022-12-29T01:45:13;-1.80;1.00
41469;DHT22;27206;47.032;15.484;2022-12-29T01:47:59;-1.80;1.00
41469;DHT22;27206;47.032;15.484;2022-12-29T01:50:33;-2.00;1.00
41469;DHT22;27206;47.032;15.484;2022-12-29T01:53:34;-2.00;1.00
41469;DHT22;27206;47.032;15.484;2022-12-29T01:55:54;-1.90;1.00
41469;DHT22;27206;47.032;15.484;2022-12-29T01:58:21;-1.90;1.00
41469;DHT22;27206;47.032;15.484;2022-12-29T02:00:48;-1.90;1.00
41469;DHT22;27206;47.032;15.484;2022-12-29T02:03:13;-1.80;1.00
41469;DHT22;27206;47.032;15.484;2022-12-29T02:05:40;-1.80;1.00
41469;DHT22;27206;47.032;15.484;2022-12-29T02:08:07;-1.90;1.00
41469;DHT22;27206;47.032;15.484;2022-12-29T02:10:34;-2.00;1.00
41469;DHT22;27206;47.032;15.484;2022-12-29T02:13:00;-1.90;1.00
41469;DHT22;27206;47.032;15.484;2022-12-29T02:28:49;-2.30;1.00
41469;DHT22;27206;47.032;15.484;2022-12-29T02:31:26;-2.50;1.00
41469;DHT22;27206;47.032;15.484;2022-12-29T02:34:06;-2.40;1.00
41469;DHT22;27206;47.032;15.484;2022-12-29T02:51:34;-2.10;1.00
41469;DHT22;27206;47.032;15.484;2022-12-29T02:54:01;-2.10;1.00
41469;DHT22;27206;47.032;15.484;2022-12-29T02:56:45;-2.00;1.00
41469;DHT22;27206;47.032;15.484;2022-12-29T02:59:10;-2.00;1.00
41469;DHT22;27206;47.032;15.484;2022-12-29T03:04:15;-2.00;1.00
41469;DHT22;27206;47.032;15.484;2022-12-29T03:09:22;-2.20;1.00
41469;DHT22;27206;47.032;15.484;2022-12-29T03:11:58;-2.20;1.00
41469;DHT22;27206;47.032;15.484;2022-12-29T03:14:33;-2.10;1.00
41469;DHT22;27206;47.032;15.484;2022-12-29T03:17:29;-2.10;1.00
41469;DHT22;27206;47.032;15.484;2022-12-29T03:20:01;-2.00;1.00
41469;DHT22;27206;47.032;15.484;2022-12-29T03:22:29;-2.00;1.00
41469;DHT22;27206;47.032;15.484;2022-12-29T03:25:02;-2.10;1.00
41469;DHT22;27206;47.032;15.484;2022-12-29T03:27:32;-2.10;1.00
41469;DHT22;27206;47.032;15.484;2022-12-29T03:30:00;-2.00;1.00
41469;DHT22;27206;47.032;15.484;2022-12-29T03:32:28;-2.20;1.00
41469;DHT22;27206;47.032;15.484;2022-12-29T03:34:56;-2.30;1.00
41469;DHT22;27206;47.032;15.484;2022-12-29T03:37:23;-2.20;1.00
41469;DHT22;27206;47.032;15.484;2022-12-29T03:39:51;-2.10;1.00
41469;DHT22;27206;47.032;15.484;2022-12-29T03:42:18;-2.10;1.00
41469;DHT22;27206;47.032;15.484;2022-12-29T03:44:44;-2.00;1.00
41469;DHT22;27206;47.032;15.484;2022-12-29T03:47:10;-2.10;1.00
41469;DHT22;27206;47.032;15.484;2022-12-29T03:49:36;-2.20;1.00
41469;DHT22;27206;47.032;15.484;2022-12-29T03:52:02;-2.20;1.00
41469;DHT22;27206;47.032;15.484;2022-12-29T03:54:27;-2.20;1.00
41469;DHT22;27206;47.032;15.484;2022-12-29T03:56:53;-2.20;1.00
41469;DHT22;27206;47.032;15.484;2022-12-29T03:59:18;-2.30;1.00
41469;DHT22;27206;47.032;15.484;2022-12-29T04:01:44;-2.40;1.00
41469;DHT22;27206;47.032;15.484;2022-12-29T04:04:09;-2.20;1.00
41469;DHT22;27206;47.032;15.484;2022-12-29T04:06:35;-2.20;1.00
41469;DHT22;27206;47.032;15.484;2022-12-29T04:09:00;-2.10;1.00
41469;DHT22;27206;47.032;15.484;2022-12-29T04:11:26;-2.10;1.00
41469;DHT22;27206;47.032;15.484;2022-12-29T04:13:52;-2.10;1.00
41469;DHT22;27206;47.032;15.484;2022-12-29T04:16:17;-2.10;1.00
41469;DHT22;27206;47.032;15.484;2022-12-29T04:18:43;-2.10;1.00
41469;DHT22;27206;47.032;15.484;2022-12-29T04:21:08;-2.10;1.00
41469;DHT22;27206;47.032;15.484;2022-12-29T04:23:35;-2.10;1.00
41469;DHT22;27206;47.032;15.484;2022-12-29T04:26:01;-2.00;1.00
41469;DHT22;27206;47.032;15.484;2022-12-29T04:28:27;-2.10;1.00
41469;DHT22;27206;47.032;15.484;2022-12-29T04:30:53;-2.20;1.00
41469;DHT22;27206;47.032;15.484;2022-12-29T04:33:19;-2.10;1.00
41469;DHT22;27206;47.032;15.484;2022-12-29T04:35:44;-2.20;1.00
41469;DHT22;27206;47.032;15.484;2022-12-29T04:38:10;-2.20;1.00
41469;DHT22;27206;47.032;15.484;2022-12-29T04:40:37;-2.20;1.00
41469;DHT22;27206;47.032;15.484;2022-12-29T04:43:03;-2.20;1.00
41469;DHT22;27206;47.032;15.484;2022-12-29T04:45:28;-2.30;1.00
41469;DHT22;27206;47.032;15.484;2022-12-29T04:47:54;-2.50;1.00
41469;DHT22;27206;47.032;15.484;2022-12-29T04:50:19;-2.50;1.00
41469;DHT22;27206;47.032;15.484;2022-12-29T04:52:45;-2.60;1.00
41469;DHT22;27206;47.032;15.484;2022-12-29T04:55:10;-2.80;1.00
41469;DHT22;27206;47.032;15.484;2022-12-29T04:57:36;-2.70;1.00
41469;DHT22;27206;47.032;15.484;2022-12-29T05:00:02;-2.70;1.00
41469;DHT22;27206;47.032;15.484;2022-12-29T05:02:28;-2.70;1.00
41469;DHT22;27206;47.032;15.484;2022-12-29T05:04:54;-2.60;1.00
41469;DHT22;27206;47.032;15.484;2022-12-29T05:07:19;-2.50;1.00
41469;DHT22;27206;47.032;15.484;2022-12-29T05:09:45;-2.60;1.00
41469;DHT22;27206;47.032;15.484;2022-12-29T05:12:10;-2.50;1.00
41469;DHT22;27206;47.032;15.484;2022-12-29T05:14:36;-2.50;1.00
41469;DHT22;27206;47.032;15.484;2022-12-29T05:17:01;-2.30;1.00
41469;DHT22;27206;47.032;15.484;2022-12-29T05:19:27;-2.00;1.00
41469;DHT22;27206;47.032;15.484;2022-12-29T05:21:52;-2.20;1.00
41469;DHT22;27206;47.032;15.484;2022-12-29T05:24:18;-2.40;1.00
41469;DHT22;27206;47.032;15.484;2022-12-29T05:26:43;-2.30;1.00
41469;DHT22;27206;47.032;15.484;2022-12-29T05:29:09;-2.40;1.00
41469;DHT22;27206;47.032;15.484;2022-12-29T05:31:34;-2.50;1.00
41469;DHT22;27206;47.032;15.484;2022-12-29T05:34:01;-2.60;1.00
41469;DHT22;27206;47.032;15.484;2022-12-29T05:36:26;-2.60;1.00
41469;DHT22;27206;47.032;15.484;2022-12-29T05:38:52;-2.60;1.00
41469;DHT22;27206;47.032;15.484;2022-12-29T05:41:17;-2.60;1.00
41469;DHT22;27206;47.032;15.484;2022-12-29T05:43:43;-2.60;1.00
41469;DHT22;27206;47.032;15.484;2022-12-29T05:46:08;-2.60;1.00
41469;DHT22;27206;47.032;15.484;2022-12-29T05:48:34;-2.60;1.00
41469;DHT22;27206;47.032;15.484;2022-12-29T05:50:59;-2.60;1.00
41469;DHT22;27206;47.032;15.484;2022-12-29T05:53:25;-2.60;1.00
41469;DHT22;27206;47.032;15.484;2022-12-29T05:55:50;-2.70;1.00
41469;DHT22;27206;47.032;15.484;2022-12-29T05:58:16;-2.70;1.00
41469;DHT22;27206;47.032;15.484;2022-12-29T06:00:42;-2.70;1.00
41469;DHT22;27206;47.032;15.484;2022-12-29T06:03:07;-2.70;1.00
41469;DHT22;27206;47.032;15.484;2022-12-29T06:05:33;-2.80;1.00
41469;DHT22;27206;47.032;15.484;2022-12-29T06:07:59;-2.80;1.00
41469;DHT22;27206;47.032;15.484;2022-12-29T06:10:24;-2.80;1.00
41469;DHT22;27206;47.032;15.484;2022-12-29T06:12:50;-2.70;1.00
41469;DHT22;27206;47.032;15.484;2022-12-29T06:15:15;-2.60;1.00
41469;DHT22;27206;47.032;15.484;2022-12-29T06:17:40;-2.70;1.00
41469;DHT22;27206;47.032;15.484;2022-12-29T06:20:06;-2.70;1.00
41469;DHT22;27206;47.032;15.484;2022-12-29T06:22:32;-2.70;1.00
41469;DHT22;27206;47.032;15.484;2022-12-29T06:24:57;-2.60;1.00
41469;DHT22;27206;47.032;15.484;2022-12-29T06:27:23;-2.60;1.00
41469;DHT22;27206;47.032;15.484;2022-12-29T06:29:49;-2.70;1.00
41469;DHT22;27206;47.032;15.484;2022-12-29T06:32:15;-2.70;1.00
41469;DHT22;27206;47.032;15.484;2022-12-29T06:34:40;-2.80;1.00
41469;DHT22;27206;47.032;15.484;2022-12-29T06:37:06;-2.80;1.00
41469;DHT22;27206;47.032;15.484;2022-12-29T06:39:32;-2.80;1.00
41469;DHT22;27206;47.032;15.484;2022-12-29T06:41:57;-2.90;1.00
41469;DHT22;27206;47.032;15.484;2022-12-29T06:44:23;-3.00;1.00
41469;DHT22;27206;47.032;15.484;2022-12-29T06:46:49;-3.00;1.00
41469;DHT22;27206;47.032;15.484;2022-12-29T06:49:14;-2.80;1.00
41469;DHT22;27206;47.032;15.484;2022-12-29T06:51:40;-2.80;1.00
41469;DHT22;27206;47.032;15.484;2022-12-29T06:54:05;-2.80;1.00
41469;DHT22;27206;47.032;15.484;2022-12-29T06:56:31;-2.80;1.00
41469;DHT22;27206;47.032;15.484;2022-12-29T06:58:56;-2.80;1.00
41469;DHT22;27206;47.032;15.484;2022-12-29T07:01:22;-2.60;1.00
41469;DHT22;27206;47.032;15.484;2022-12-29T07:03:47;-2.70;1.00
41469;DHT22;27206;47.032;15.484;2022-12-29T07:06:13;-2.50;1.00
41469;DHT22;27206;47.032;15.484;2022-12-29T07:08:39;-2.30;1.00
41469;DHT22;27206;47.032;15.484;2022-12-29T07:11:04;-2.30;1.00
41469;DHT22;27206;47.032;15.484;2022-12-29T07:13:30;-2.20;1.00
41469;DHT22;27206;47.032;15.484;2022-12-29T07:15:55;-2.00;1.00
41469;DHT22;27206;47.032;15.484;2022-12-29T07:18:21;-1.90;1.00
41469;DHT22;27206;47.032;15.484;2022-12-29T07:20:46;-1.80;1.00
41469;DHT22;27206;47.032;15.484;2022-12-29T07:23:12;-1.80;1.00
41469;DHT22;27206;47.032;15.484;2022-12-29T07:25:37;-1.70;1.00
41469;DHT22;27206;47.032;15.484;2022-12-29T07:28:05;-1.80;1.00
41469;DHT22;27206;47.032;15.484;2022-12-29T07:30:31;-1.80;1.00
41469;DHT22;27206;47.032;15.484;2022-12-29T07:32:56;-1.80;1.00
41469;DHT22;27206;47.032;15.484;2022-12-29T07:35:22;-2.00;1.00
41469;DHT22;27206;47.032;15.484;2022-12-29T07:37:47;-1.70;1.00
41469;DHT22;27206;47.032;15.484;2022-12-29T07:40:13;-1.70;1.00
41469;DHT22;27206;47.032;15.484;2022-12-29T07:42:38;-1.60;1.00
41469;DHT22;27206;47.032;15.484;2022-12-29T07:45:04;-1.40;1.00
41469;DHT22;27206;47.032;15.484;2022-12-29T07:47:29;-1.20;1.00
41469;DHT22;27206;47.032;15.484;2022-12-29T07:49:55;-1.20;1.00
41469;DHT22;27206;47.032;15.484;2022-12-29T07:52:20;-1.20;1.00
41469;DHT22;27206;47.032;15.484;2022-12-29T07:54:46;-1.10;1.00
41469;DHT22;27206;47.032;15.484;2022-12-29T07:57:12;-1.10;1.00
41469;DHT22;27206;47.032;15.484;2022-12-29T07:59:37;-1.10;1.00
41469;DHT22;27206;47.032;15.484;2022-12-29T08:02:03;-1.10;1.00
41469;DHT22;27206;47.032;15.484;2022-12-29T08:04:28;-1.10;1.00
41469;DHT22;27206;47.032;15.484;2022-12-29T08:06:54;-0.90;1.00
41469;DHT22;27206;47.032;15.484;2022-12-29T08:09:19;-1.00;1.00
41469;DHT22;27206;47.032;15.484;2022-12-29T08:11:45;-0.80;1.00
41469;DHT22;27206;47.032;15.484;2022-12-29T08:14:10;-0.60;1.00
41469;DHT22;27206;47.032;15.484;2022-12-29T08:16:36;-0.50;1.00
41469;DHT22;27206;47.032;15.484;2022-12-29T08:19:01;-0.30;1.00
41469;DHT22;27206;47.032;15.484;2022-12-29T08:21:27;-0.20;1.00
41469;DHT22;27206;47.032;15.484;2022-12-29T08:23:53;0.00;1.00
41469;DHT22;27206;47.032;15.484;2022-12-29T08:26:18;0.10;1.00
41469;DHT22;27206;47.032;15.484;2022-12-29T08:28:44;0.30;1.00
41469;DHT22;27206;47.032;15.484;2022-12-29T08:31:09;0.40;1.00
41469;DHT22;27206;47.032;15.484;2022-12-29T08:33:35;0.60;1.00
41469;DHT22;27206;47.032;15.484;2022-12-29T08:36:01;0.80;1.00
41469;DHT22;27206;47.032;15.484;2022-12-29T08:38:31;0.80;1.00
41469;DHT22;27206;47.032;15.484;2022-12-29T08:40:57;0.90;1.00
41469;DHT22;27206;47.032;15.484;2022-12-29T08:43:23;1.00;1.00
41469;DHT22;27206;47.032;15.484;2022-12-29T08:45:49;1.10;1.00
41469;DHT22;27206;47.032;15.484;2022-12-29T08:48:14;1.30;1.00
41469;DHT22;27206;47.032;15.484;2022-12-29T08:50:43;1.50;99.90
41469;DHT22;27206;47.032;15.484;2022-12-29T08:53:09;1.60;99.90
41469;DHT22;27206;47.032;15.484;2022-12-29T08:55:35;1.70;99.90
41469;DHT22;27206;47.032;15.484;2022-12-29T08:58:00;2.00;99.90
41469;DHT22;27206;47.032;15.484;2022-12-29T09:00:26;2.10;99.90
41469;DHT22;27206;47.032;15.484;2022-12-29T09:02:52;2.20;99.90
41469;DHT22;27206;47.032;15.484;2022-12-29T09:05:17;2.40;99.90
41469;DHT22;27206;47.032;15.484;2022-12-29T09:07:42;2.60;99.90
41469;DHT22;27206;47.032;15.484;2022-12-29T09:10:08;2.60;99.90
41469;DHT22;27206;47.032;15.484;2022-12-29T09:12:34;2.80;99.90
41469;DHT22;27206;47.032;15.484;2022-12-29T09:14:59;2.90;99.90
41469;DHT22;27206;47.032;15.484;2022-12-29T09:17:25;3.00;99.90
41469;DHT22;27206;47.032;15.484;2022-12-29T09:20:09;3.10;99.90
41469;DHT22;27206;47.032;15.484;2022-12-29T09:22:35;3.00;99.90
41469;DHT22;27206;47.032;15.484;2022-12-29T09:25:01;3.20;99.90
41469;DHT22;27206;47.032;15.484;2022-12-29T09:27:26;3.40;99.90
41469;DHT22;27206;47.032;15.484;2022-12-29T09:29:52;3.60;99.90
41469;DHT22;27206;47.032;15.484;2022-12-29T09:32:17;3.50;99.90
41469;DHT22;27206;47.032;15.484;2022-12-29T09:34:43;3.40;99.90
41469;DHT22;27206;47.032;15.484;2022-12-29T09:37:08;3.60;99.90
41469;DHT22;27206;47.032;15.484;2022-12-29T09:39:34;3.70;99.90
41469;DHT22;27206;47.032;15.484;2022-12-29T09:42:03;4.00;99.90
41469;DHT22;27206;47.032;15.484;2022-12-29T09:44:39;3.90;99.90
41469;DHT22;27206;47.032;15.484;2022-12-29T09:47:09;4.00;99.90
41469;DHT22;27206;47.032;15.484;2022-12-29T09:49:43;4.10;99.90
41469;DHT22;27206;47.032;15.484;2022-12-29T09:52:13;4.00;99.90
41469;DHT22;27206;47.032;15.484;2022-12-29T09:54:46;4.20;99.90
41469;DHT22;27206;47.032;15.484;2022-12-29T09:57:20;4.20;99.90
41469;DHT22;27206;47.032;15.484;2022-12-29T09:59:47;4.40;99.90
41469;DHT22;27206;47.032;15.484;2022-12-29T10:04:59;4.60;99.90
41469;DHT22;27206;47.032;15.484;2022-12-29T10:07:34;4.70;99.90
41469;DHT22;27206;47.032;15.484;2022-12-29T10:10:04;5.00;99.90
41469;DHT22;27206;47.032;15.484;2022-12-29T10:15:33;5.40;99.90
41469;DHT22;27206;47.032;15.484;2022-12-29T10:20:47;6.00;99.90
41469;DHT22;27206;47.032;15.484;2022-12-29T10:23:22;6.20;99.90
41469;DHT22;27206;47.032;15.484;2022-12-29T10:25:50;6.60;99.90
41469;DHT22;27206;47.032;15.484;2022-12-29T10:28:22;7.00;99.90
41469;DHT22;27206;47.032;15.484;2022-12-29T10:30:48;7.00;99.90
41469;DHT22;27206;47.032;15.484;2022-12-29T10:33:22;7.20;99.90
41469;DHT22;27206;47.032;15.484;2022-12-29T10:35:49;7.50;99.90
41469;DHT22;27206;47.032;15.484;2022-12-29T10:45:49;8.20;99.90
41469;DHT22;27206;47.032;15.484;2022-12-29T10:48:24;8.40;99.90
41469;DHT22;27206;47.032;15.484;2022-12-29T10:50:50;8.40;99.90
41469;DHT22;27206;47.032;15.484;2022-12-29T10:53:23;8.60;99.90
41469;DHT22;27206;47.032;15.484;2022-12-29T10:55:50;8.70;99.90
41469;DHT22;27206;47.032;15.484;2022-12-29T10:58:16;8.60;99.90
41469;DHT22;27206;47.032;15.484;2022-12-29T11:00:42;8.40;99.90
41469;DHT22;27206;47.032;15.484;2022-12-29T11:05:52;9.30;99.90
41469;DHT22;27206;47.032;15.484;2022-12-29T11:08:21;9.20;99.90
41469;DHT22;27206;47.032;15.484;2022-12-29T11:10:56;8.90;99.90
41469;DHT22;27206;47.032;15.484;2022-12-29T11:13:25;9.90;99.90
41469;DHT22;27206;47.032;15.484;2022-12-29T11:15:51;10.10;99.90
41469;DHT22;27206;47.032;15.484;2022-12-29T11:20:42;9.20;99.90
41469;DHT22;27206;47.032;15.484;2022-12-29T11:23:26;9.10;99.90
41469;DHT22;27206;47.032;15.484;2022-12-29T11:26:05;9.00;99.90
41469;DHT22;27206;47.032;15.484;2022-12-29T11:28:31;8.80;99.90
41469;DHT22;27206;47.032;15.484;2022-12-29T11:30:59;9.10;99.90
41469;DHT22;27206;47.032;15.484;2022-12-29T11:33:27;9.50;99.90
41469;DHT22;27206;47.032;15.484;2022-12-29T11:35:53;10.10;99.90
41469;DHT22;27206;47.032;15.484;2022-12-29T11:38:23;10.80;99.90
41469;DHT22;27206;47.032;15.484;2022-12-29T11:40:50;10.30;99.90
41469;DHT22;27206;47.032;15.484;2022-12-29T11:45:51;10.30;99.90
41469;DHT22;27206;47.032;15.484;2022-12-29T11:48:20;10.50;99.90
41469;DHT22;27206;47.032;15.484;2022-12-29T11:50:53;10.50;99.90
41469;DHT22;27206;47.032;15.484;2022-12-29T11:55:50;10.60;99.90
41469;DHT22;27206;47.032;15.484;2022-12-29T11:58:17;10.70;99.90
41469;DHT22;27206;47.032;15.484;2022-12-29T12:00:42;11.40;99.90
41469;DHT22;27206;47.032;15.484;2022-12-29T12:03:13;12.00;99.90
41469;DHT22;27206;47.032;15.484;2022-12-29T12:05:46;13.00;99.90
41469;DHT22;27206;47.032;15.484;2022-12-29T12:10:47;12.30;99.90
41469;DHT22;27206;47.032;15.484;2022-12-29T12:13:17;12.60;99.90
41469;DHT22;27206;47.032;15.484;2022-12-29T12:15:44;12.50;99.90
41469;DHT22;27206;47.032;15.484;2022-12-29T12:18:14;12.20;99.90
41469;DHT22;27206;47.032;15.484;2022-12-29T12:21:25;12.50;99.90
41469;DHT22;27206;47.032;15.484;2022-12-29T12:23:36;12.50;99.90
41469;DHT22;27206;47.032;15.484;2022-12-29T12:26:07;13.20;99.90
41469;DHT22;27206;47.032;15.484;2022-12-29T12:28:37;13.40;99.90
41469;DHT22;27206;47.032;15.484;2022-12-29T12:31:21;14.70;99.90
41469;DHT22;27206;47.032;15.484;2022-12-29T12:33:48;13.50;99.90
41469;DHT22;27206;47.032;15.484;2022-12-29T12:36:29;13.60;99.90
41469;DHT22;27206;47.032;15.484;2022-12-29T12:39:14;14.60;99.90
41469;DHT22;27206;47.032;15.484;2022-12-29T12:41:57;15.50;99.90
41469;DHT22;27206;47.032;15.484;2022-12-29T12:44:33;16.00;99.90
41469;DHT22;27206;47.032;15.484;2022-12-29T12:52:16;16.60;99.90
41469;DHT22;27206;47.032;15.484;2022-12-29T12:55:30;16.10;99.90
41469;DHT22;27206;47.032;15.484;2022-12-29T12:57:45;16.10;99.90
41469;DHT22;27206;47.032;15.484;2022-12-29T13:00:17;16.30;99.90
41469;DHT22;27206;47.032;15.484;2022-12-29T13:23:40;15.80;99.90
41469;DHT22;27206;47.032;15.484;2022-12-29T13:26:13;15.70;99.90
41469;DHT22;27206;47.032;15.484;2022-12-29T13:33:59;16.30;99.90
41469;DHT22;27206;47.032;15.484;2022-12-29T13:36:29;16.50;99.90
41469;DHT22;27206;47.032;15.484;2022-12-29T13:39:02;16.00;99.90
41469;DHT22;27206;47.032;15.484;2022-12-29T13:43:56;14.80;99.90
41469;DHT22;27206;47.032;15.484;2022-12-29T13:46:28;15.50;99.90
41469;DHT22;27206;47.032;15.484;2022-12-29T13:49:00;16.00;99.90
41469;DHT22;27206;47.032;15.484;2022-12-29T13:51:27;16.10;99.90
41469;DHT22;27206;47.032;15.484;2022-12-29T13:56:39;16.20;99.90
41469;DHT22;27206;47.032;15.484;2022-12-29T14:01:59;16.50;99.90
41469;DHT22;27206;47.032;15.484;2022-12-29T14:04:28;16.50;99.90
41469;DHT22;27206;47.032;15.484;2022-12-29T14:11:55;16.00;99.90
41469;DHT22;27206;47.032;15.484;2022-12-29T14:14:30;15.80;99.90
41469;DHT22;27206;47.032;15.484;2022-12-29T14:17:08;14.90;99.90
41469;DHT22;27206;47.032;15.484;2022-12-29T14:19:35;14.40;99.90
41469;DHT22;27206;47.032;15.484;2022-12-29T14:22:02;14.20;99.90
41469;DHT22;27206;47.032;15.484;2022-12-29T14:27:00;14.00;99.90
41469;DHT22;27206;47.032;15.484;2022-12-29T14:31:54;13.30;99.90
41469;DHT22;27206;47.032;15.484;2022-12-29T14:36:53;13.20;99.90
41469;DHT22;27206;47.032;15.484;2022-12-29T14:39:33;12.90;99.90
41469;DHT22;27206;47.032;15.484;2022-12-29T14:42:00;12.70;99.90
41469;DHT22;27206;47.032;15.484;2022-12-29T14:44:26;12.60;99.90
41469;DHT22;27206;47.032;15.484;2022-12-29T14:49:25;12.60;99.90
41469;DHT22;27206;47.032;15.484;2022-12-29T14:51:52;12.00;99.90
41469;DHT22;27206;47.032;15.484;2022-12-29T14:56:58;11.20;99.90
41469;DHT22;27206;47.032;15.484;2022-12-29T14:59:23;10.90;99.90
41469;DHT22;27206;47.032;15.484;2022-12-29T15:01:51;10.70;99.90
41469;DHT22;27206;47.032;15.484;2022-12-29T15:04:19;10.60;99.90
41469;DHT22;27206;47.032;15.484;2022-12-29T15:06:45;10.50;99.90
41469;DHT22;27206;47.032;15.484;2022-12-29T15:17:11;9.50;99.90
41469;DHT22;27206;47.032;15.484;2022-12-29T15:19:47;9.10;99.90
41469;DHT22;27206;47.032;15.484;2022-12-29T15:22:12;8.60;99.90
41469;DHT22;27206;47.032;15.484;2022-12-29T15:24:41;8.40;99.90
41469;DHT22;27206;47.032;15.484;2022-12-29T15:27:06;7.80;99.90
41469;DHT22;27206;47.032;15.484;2022-12-29T15:29:33;7.90;99.90
41469;DHT22;27206;47.032;15.484;2022-12-29T15:32:02;7.80;99.90
41469;DHT22;27206;47.032;15.484;2022-12-29T15:34:35;7.70;99.90
41469;DHT22;27206;47.032;15.484;2022-12-29T15:37:05;7.10;99.90
41469;DHT22;27206;47.032;15.484;2022-12-29T15:39:31;7.00;99.90
41469;DHT22;27206;47.032;15.484;2022-12-29T15:41:59;6.90;99.90
41469;DHT22;27206;47.032;15.484;2022-12-29T15:44:34;6.70;99.90
41469;DHT22;27206;47.032;15.484;2022-12-29T15:47:08;6.50;99.90
41469;DHT22;27206;47.032;15.484;2022-12-29T15:49:37;6.40;99.90
41469;DHT22;27206;47.032;15.484;2022-12-29T15:52:06;6.40;99.90
41469;DHT22;27206;47.032;15.484;2022-12-29T15:54:31;6.10;99.90
41469;DHT22;27206;47.032;15.484;2022-12-29T15:56:57;6.20;99.90
41469;DHT22;27206;47.032;15.484;2022-12-29T15:59:23;6.00;99.90
41469;DHT22;27206;47.032;15.484;2022-12-29T16:01:49;5.70;99.90
41469;DHT22;27206;47.032;15.484;2022-12-29T16:04:15;5.50;99.90
41469;DHT22;27206;47.032;15.484;2022-12-29T16:06:45;5.60;99.90
41469;DHT22;27206;47.032;15.484;2022-12-29T16:09:27;5.50;99.90
41469;DHT22;27206;47.032;15.484;2022-12-29T16:11:54;5.60;99.90
41469;DHT22;27206;47.032;15.484;2022-12-29T16:14:21;5.50;99.90
41469;DHT22;27206;47.032;15.484;2022-12-29T16:16:50;5.40;99.90
41469;DHT22;27206;47.032;15.484;2022-12-29T16:19:21;5.20;99.90
41469;DHT22;27206;47.032;15.484;2022-12-29T16:21:49;5.20;99.90
41469;DHT22;27206;47.032;15.484;2022-12-29T16:24:16;5.20;99.90
41469;DHT22;27206;47.032;15.484;2022-12-29T16:26:51;5.10;99.90
41469;DHT22;27206;47.032;15.484;2022-12-29T16:29:17;4.90;99.90
41469;DHT22;27206;47.032;15.484;2022-12-29T16:31:57;4.80;99.90
41469;DHT22;27206;47.032;15.484;2022-12-29T16:34:29;4.90;99.90
41469;DHT22;27206;47.032;15.484;2022-12-29T16:37:02;4.50;99.90
41469;DHT22;27206;47.032;15.484;2022-12-29T16:39:37;4.40;99.90
41469;DHT22;27206;47.032;15.484;2022-12-29T16:44:48;4.20;99.90
41469;DHT22;27206;47.032;15.484;2022-12-29T16:47:18;4.20;99.90
41469;DHT22;27206;47.032;15.484;2022-12-29T16:49:46;4.10;99.90
41469;DHT22;27206;47.032;15.484;2022-12-29T16:52:17;4.10;99.90
41469;DHT22;27206;47.032;15.484;2022-12-29T16:54:47;3.90;99.90
41469;DHT22;27206;47.032;15.484;2022-12-29T16:57:14;3.70;99.90
41469;DHT22;27206;47.032;15.484;2022-12-29T16:59:40;3.70;99.90
41469;DHT22;27206;47.032;15.484;2022-12-29T17:02:15;3.70;99.90
41469;DHT22;27206;47.032;15.484;2022-12-29T17:04:41;3.70;99.90
41469;DHT22;27206;47.032;15.484;2022-12-29T17:07:10;3.70;99.90
41469;DHT22;27206;47.032;15.484;2022-12-29T17:09:40;3.50;99.90
41469;DHT22;27206;47.032;15.484;2022-12-29T17:12:06;3.40;99.90
41469;DHT22;27206;47.032;15.484;2022-12-29T17:17:19;3.50;99.90
41469;DHT22;27206;47.032;15.484;2022-12-29T17:19:46;3.40;99.90
41469;DHT22;27206;47.032;15.484;2022-12-29T17:22:14;3.40;99.90
41469;DHT22;27206;47.032;15.484;2022-12-29T17:24:40;3.40;99.90
41469;DHT22;27206;47.032;15.484;2022-12-29T17:27:06;3.30;99.90
41469;DHT22;27206;47.032;15.484;2022-12-29T17:32:00;3.20;99.90
41469;DHT22;27206;47.032;15.484;2022-12-29T17:34:26;3.40;99.90
41469;DHT22;27206;47.032;15.484;2022-12-29T17:36:52;3.40;99.90
41469;DHT22;27206;47.032;15.484;2022-12-29T17:39:18;3.40;99.90
41469;DHT22;27206;47.032;15.484;2022-12-29T17:41:43;3.40;99.90
41469;DHT22;27206;47.032;15.484;2022-12-29T17:44:12;3.30;99.90
41469;DHT22;27206;47.032;15.484;2022-12-29T17:46:38;3.30;99.90
41469;DHT22;27206;47.032;15.484;2022-12-29T17:49:04;3.20;99.90
41469;DHT22;27206;47.032;15.484;2022-12-29T17:51:30;3.20;99.90
41469;DHT22;27206;47.032;15.484;2022-12-29T17:53:56;3.10;99.90